createdAt,value
2022-09-26T00:01:56.219Z,13.78
2022-09-26T00:07:18.596Z,13.69
2022-09-26T00:12:40.226Z,13.76
2022-09-26T00:18:01.908Z,13.74
2022-09-26T00:23:24.321Z,13.77
2022-09-26T00:28:46.581Z,13.74
2022-09-26T00:34:10.446Z,13.67
2022-09-26T00:39:32.818Z,13.68
2022-09-26T00:44:56.030Z,13.77
2022-09-26T00:50:20.693Z,13.76
2022-09-26T00:55:45.942Z,13.69
2022-09-26T01:01:08.619Z,13.47
2022-09-26T01:06:30.544Z,13.52
2022-09-26T01:11:53.197Z,13.51
2022-09-26T01:17:15.173Z,13.44
2022-09-26T01:23:03.694Z,13.34
2022-09-26T01:28:38.651Z,13.20
2022-09-26T01:34:04.014Z,13.19
2022-09-26T01:39:39.357Z,13.03
2022-09-26T01:45:05.477Z,12.98
2022-09-26T01:50:34.680Z,13.03
2022-09-26T01:55:59.784Z,12.96
2022-09-26T02:01:23.193Z,13.16
2022-09-26T02:06:49.857Z,13.14
2022-09-26T02:12:14.667Z,12.99
2022-09-26T02:17:40.317Z,13.01
2022-09-26T02:23:03.441Z,13.00
2022-09-26T02:28:25.134Z,13.12
2022-09-26T02:33:47.308Z,13.05
2022-09-26T02:39:10.554Z,13.07
2022-09-26T02:44:50.209Z,12.99
2022-09-26T02:50:24.354Z,13.01
2022-09-26T02:55:52.074Z,13.02
2022-09-26T03:01:17.926Z,12.89
2022-09-26T03:06:44.675Z,12.87
2022-09-26T03:12:09.227Z,12.86
2022-09-26T03:17:33.551Z,12.86
2022-09-26T03:22:55.637Z,12.85
2022-09-26T03:28:18.984Z,12.84
2022-09-26T03:33:40.829Z,12.82
2022-09-26T03:39:02.882Z,12.78
2022-09-26T03:44:31.593Z,12.75
2022-09-26T03:49:59.342Z,12.71
2022-09-26T03:55:21.259Z,12.68
2022-09-26T04:00:43.682Z,12.57
2022-09-26T04:06:08.084Z,12.59
2022-09-26T04:11:29.770Z,12.52
2022-09-26T04:16:52.740Z,12.37
2022-09-26T04:22:21.454Z,12.24
2022-09-26T04:27:43.236Z,12.13
2022-09-26T04:33:05.898Z,12.01
2022-09-26T04:38:32.560Z,11.96
2022-09-26T04:43:55.394Z,11.90
2022-09-26T04:49:17.863Z,11.90
2022-09-26T04:54:39.507Z,11.78
2022-09-26T05:00:01.727Z,11.86
2022-09-26T05:05:24.295Z,11.92
2022-09-26T05:10:51.836Z,11.95
2022-09-26T05:16:13.962Z,11.85
2022-09-26T05:21:36.686Z,11.94
2022-09-26T05:26:59.488Z,11.95
2022-09-26T05:32:21.520Z,11.93
2022-09-26T05:37:46.163Z,11.99
2022-09-26T05:43:07.903Z,11.97
2022-09-26T05:48:31.551Z,11.95
2022-09-26T05:53:54.039Z,11.98
2022-09-26T05:59:18.451Z,12.07
2022-09-26T06:05:03.232Z,12.12
2022-09-26T06:10:44.055Z,12.17
2022-09-26T06:16:08.034Z,12.21
2022-09-26T06:21:29.711Z,12.24
2022-09-26T06:26:58.978Z,12.29
2022-09-26T06:32:20.638Z,12.31
2022-09-26T06:37:55.530Z,12.27
2022-09-26T06:43:18.125Z,12.36
2022-09-26T06:49:08.812Z,12.21
2022-09-26T06:54:41.966Z,12.23
2022-09-26T07:00:04.956Z,12.33
2022-09-26T07:05:46.110Z,12.27
2022-09-26T07:11:31.183Z,12.39
2022-09-26T07:16:52.043Z,12.14
2022-09-26T07:22:38.093Z,12.39
2022-09-26T07:28:01.087Z,12.32
2022-09-26T07:33:50.051Z,12.16
2022-09-26T07:39:11.965Z,12.03
2022-09-26T07:50:18.529Z,12.00
2022-09-26T07:56:09.536Z,11.97
2022-09-26T08:02:06.537Z,11.89
2022-09-26T08:07:33.228Z,11.81
2022-09-26T08:13:08.894Z,11.93
2022-09-26T08:18:47.630Z,11.83
2022-09-26T08:24:10.456Z,11.93
2022-09-26T08:29:32.142Z,11.99
2022-09-26T08:34:54.416Z,12.01
2022-09-26T08:40:39.926Z,11.92
2022-09-26T08:46:43.184Z,11.83
2022-09-26T08:52:31.240Z,11.97
2022-09-26T08:57:55.492Z,12.10
2022-09-26T09:03:25.119Z,12.38
2022-09-26T09:08:50.162Z,12.43
2022-09-26T09:15:23.580Z,12.25
2022-09-26T09:21:07.381Z,12.39
2022-09-26T09:32:46.944Z,12.22
2022-09-26T09:38:16.596Z,12.30
2022-09-26T09:44:05.120Z,12.32
2022-09-26T09:49:27.631Z,12.37
2022-09-26T09:54:59.263Z,12.40
2022-09-26T10:00:21.831Z,12.46
2022-09-26T10:06:04.392Z,12.48
2022-09-26T10:11:40.989Z,12.70
2022-09-26T10:17:23.203Z,12.61
2022-09-26T10:22:54.330Z,12.76
2022-09-26T10:28:31.155Z,13.06
2022-09-26T10:33:58.029Z,13.08
2022-09-26T10:39:40.484Z,13.28
2022-09-26T10:45:11.480Z,13.21
2022-09-26T10:51:01.079Z,13.50
2022-09-26T10:56:35.748Z,13.67
2022-09-26T11:01:58.492Z,13.98
2022-09-26T11:07:24.137Z,14.39
2022-09-26T11:12:57.727Z,14.57
2022-09-26T11:18:26.300Z,14.70
2022-09-26T11:23:55.976Z,14.77
2022-09-26T11:29:23.460Z,14.82
2022-09-26T11:35:02.270Z,14.92
2022-09-26T11:40:38.247Z,14.94
2022-09-26T11:46:15.285Z,14.61
2022-09-26T11:52:02.253Z,14.60
2022-09-26T11:57:37.042Z,14.86
2022-09-26T12:03:36.748Z,15.14
2022-09-26T12:09:15.833Z,15.44
2022-09-26T12:14:44.617Z,15.61
2022-09-26T12:20:17.511Z,15.49
2022-09-26T12:25:48.764Z,15.26
2022-09-26T12:31:19.719Z,14.70
2022-09-26T12:36:54.481Z,13.90
2022-09-26T12:42:28.266Z,13.99
2022-09-26T12:48:09.066Z,14.24
2022-09-26T12:53:41.499Z,14.28
2022-09-26T12:59:16.976Z,14.66
2022-09-26T13:05:15.163Z,14.88
2022-09-26T13:10:50.917Z,14.91
2022-09-26T13:16:20.186Z,14.76
2022-09-26T13:21:45.644Z,15.13
2022-09-26T13:27:12.259Z,15.38
2022-09-26T13:32:48.385Z,15.47
2022-09-26T13:38:27.764Z,14.50
2022-09-26T13:44:00.781Z,14.30
2022-09-26T13:49:31.142Z,14.47
2022-09-26T13:54:56.464Z,14.53
2022-09-26T14:00:39.764Z,14.37
2022-09-26T14:06:31.501Z,14.37
2022-09-26T14:12:31.794Z,14.42
2022-09-26T14:18:13.188Z,14.68
2022-09-26T14:23:40.672Z,15.30
2022-09-26T14:29:24.426Z,15.42
2022-09-26T14:34:48.599Z,15.41
2022-09-26T14:40:21.817Z,15.20
2022-09-26T14:45:49.022Z,14.74
2022-09-26T14:51:26.178Z,14.60
2022-09-26T14:56:49.342Z,14.44
2022-09-26T15:02:33.575Z,14.11
2022-09-26T15:07:59.530Z,13.79
2022-09-26T15:13:26.633Z,13.81
2022-09-26T15:18:51.270Z,13.84
2022-09-26T15:24:24.312Z,13.89
2022-09-26T15:29:49.853Z,14.05
2022-09-26T15:35:13.121Z,13.92
2022-09-26T15:40:35.802Z,14.00
2022-09-26T15:45:59.091Z,13.50
2022-09-26T15:51:23.351Z,13.41
2022-09-26T15:56:47.303Z,13.62
2022-09-26T16:02:20.081Z,14.06
2022-09-26T16:07:47.184Z,14.64
2022-09-26T16:13:23.209Z,14.88
2022-09-26T16:18:46.895Z,14.50
2022-09-26T16:24:28.435Z,14.36
2022-09-26T16:29:51.576Z,14.14
2022-09-26T16:35:16.826Z,14.12
2022-09-26T16:40:38.583Z,14.06
2022-09-26T16:46:08.845Z,13.99
2022-09-26T16:51:34.298Z,13.78
2022-09-26T16:56:57.994Z,13.49
2022-09-26T17:02:25.937Z,13.39
2022-09-26T17:07:48.827Z,13.38
2022-09-26T17:13:14.429Z,13.23
2022-09-26T17:18:37.053Z,13.31
2022-09-26T17:23:58.734Z,13.36
2022-09-26T17:29:24.089Z,13.32
2022-09-26T17:34:47.774Z,13.23
2022-09-26T17:40:13.369Z,13.25
2022-09-26T17:45:39.520Z,13.24
2022-09-26T17:51:04.105Z,13.29
2022-09-26T17:56:25.897Z,13.25
2022-09-26T18:01:50.285Z,13.40
2022-09-26T18:07:14.594Z,13.39
2022-09-26T18:12:36.216Z,13.38
2022-09-26T18:17:59.546Z,13.38
2022-09-26T18:23:23.829Z,13.05
2022-09-26T18:28:45.538Z,12.64
2022-09-26T18:34:12.529Z,12.28
2022-09-26T18:39:36.018Z,12.36
2022-09-26T18:45:00.662Z,12.48
2022-09-26T18:50:25.763Z,12.35
2022-09-26T18:56:06.340Z,12.15
2022-09-26T19:01:29.954Z,12.18
2022-09-26T19:06:58.166Z,12.15
2022-09-26T19:12:20.448Z,12.01
2022-09-26T19:17:42.626Z,11.91
2022-09-26T19:23:04.238Z,11.94
2022-09-26T19:28:27.767Z,11.99
2022-09-26T19:33:49.929Z,12.04
2022-09-26T19:39:12.375Z,12.15
2022-09-26T19:44:35.320Z,12.20
2022-09-26T19:49:57.050Z,12.22
2022-09-26T19:55:20.848Z,12.20
2022-09-26T20:00:43.971Z,12.22
2022-09-26T20:06:11.478Z,12.30
2022-09-26T20:11:33.102Z,12.40
2022-09-26T20:16:57.680Z,12.44
2022-09-26T20:22:21.174Z,12.30
2022-09-26T20:27:43.113Z,12.16
2022-09-26T20:33:05.714Z,12.12
2022-09-26T20:38:30.048Z,12.17
2022-09-26T20:43:56.101Z,12.17
2022-09-26T20:49:20.858Z,11.86
2022-09-26T20:54:42.492Z,11.66
2022-09-26T21:00:04.771Z,11.54
2022-09-26T21:05:27.115Z,11.73
2022-09-26T21:10:48.690Z,11.77
2022-09-26T21:16:12.620Z,11.62
2022-09-26T21:21:34.900Z,11.63
2022-09-26T21:27:11.261Z,11.67
2022-09-26T21:32:33.219Z,11.60
2022-09-26T21:37:56.370Z,11.75
2022-09-26T21:43:20.273Z,11.41
2022-09-26T21:48:42.632Z,11.43
2022-09-26T21:54:06.877Z,11.29
2022-09-26T21:59:29.364Z,11.48
2022-09-26T22:04:51.714Z,11.50
2022-09-26T22:10:14.895Z,11.45
2022-09-26T22:15:36.591Z,11.39
2022-09-26T22:20:58.324Z,11.53
2022-09-26T22:26:20.689Z,11.63
2022-09-26T22:31:42.591Z,11.75
2022-09-26T22:37:04.410Z,11.83
2022-09-26T22:42:26.716Z,11.81
2022-09-26T22:47:48.350Z,11.81
2022-09-26T22:53:10.109Z,11.80
2022-09-26T22:58:35.809Z,11.56
2022-09-26T23:03:57.935Z,11.40
2022-09-26T23:09:19.556Z,11.15
2022-09-26T23:14:41.915Z,10.97
2022-09-26T23:20:04.255Z,11.03
2022-09-26T23:25:25.912Z,11.10
2022-09-26T23:30:49.519Z,11.19
2022-09-26T23:36:11.774Z,11.34
2022-09-26T23:41:33.429Z,11.28
2022-09-26T23:46:55.678Z,11.27
2022-09-26T23:52:17.434Z,11.23
2022-09-26T23:57:39.111Z,11.17
